sensor_id;sensor_type;location;lat;lon;timestamp;P1;durP1;ratioP1;P2;durP2;ratioP2
15240;SDS011;7723;52.170;9.978;2023-03-17T00:00:54;2.10;;;1.40;;
15240;SDS011;7723;52.170;9.978;2023-03-17T00:03:22;2.10;;;1.30;;
15240;SDS011;7723;52.170;9.978;2023-03-17T00:05:51;4.28;;;1.30;;
15240;SDS011;7723;52.170;9.978;2023-03-17T00:08:20;2.65;;;1.50;;
15240;SDS011;7723;52.170;9.978;2023-03-17T00:10:49;2.05;;;1.30;;
15240;SDS011;7723;52.170;9.978;2023-03-17T00:13:16;1.58;;;1.40;;
15240;SDS011;7723;52.170;9.978;2023-03-17T00:15:44;1.92;;;1.38;;
15240;SDS011;7723;52.170;9.978;2023-03-17T00:18:15;3.72;;;1.65;;
15240;SDS011;7723;52.170;9.978;2023-03-17T00:20:44;4.22;;;2.17;;
15240;SDS011;7723;52.170;9.978;2023-03-17T00:23:13;1.95;;;1.50;;
15240;SDS011;7723;52.170;9.978;2023-03-17T00:25:44;2.10;;;1.60;;
15240;SDS011;7723;52.170;9.978;2023-03-17T00:28:15;2.60;;;1.50;;
15240;SDS011;7723;52.170;9.978;2023-03-17T00:30:45;3.03;;;1.48;;
15240;SDS011;7723;52.170;9.978;2023-03-17T00:33:14;2.78;;;2.00;;
15240;SDS011;7723;52.170;9.978;2023-03-17T00:35:43;3.80;;;2.35;;
15240;SDS011;7723;52.170;9.978;2023-03-17T00:38:13;2.38;;;1.83;;
15240;SDS011;7723;52.170;9.978;2023-03-17T00:40:42;3.88;;;2.42;;
15240;SDS011;7723;52.170;9.978;2023-03-17T00:43:10;2.00;;;1.58;;
15240;SDS011;7723;52.170;9.978;2023-03-17T00:45:38;2.58;;;2.05;;
15240;SDS011;7723;52.170;9.978;2023-03-17T00:48:09;1.92;;;1.38;;
15240;SDS011;7723;52.170;9.978;2023-03-17T00:50:41;3.47;;;2.03;;
15240;SDS011;7723;52.170;9.978;2023-03-17T00:53:10;3.70;;;1.70;;
15240;SDS011;7723;52.170;9.978;2023-03-17T00:55:39;2.95;;;1.95;;
15240;SDS011;7723;52.170;9.978;2023-03-17T00:58:09;4.53;;;2.50;;
15240;SDS011;7723;52.170;9.978;2023-03-17T01:00:39;3.03;;;2.00;;
15240;SDS011;7723;52.170;9.978;2023-03-17T01:03:07;3.15;;;1.65;;
15240;SDS011;7723;52.170;9.978;2023-03-17T01:05:37;2.25;;;1.70;;
15240;SDS011;7723;52.170;9.978;2023-03-17T01:08:07;3.97;;;2.05;;
15240;SDS011;7723;52.170;9.978;2023-03-17T01:10:34;4.22;;;2.00;;
15240;SDS011;7723;52.170;9.978;2023-03-17T01:13:02;2.28;;;1.80;;
15240;SDS011;7723;52.170;9.978;2023-03-17T01:15:31;4.68;;;2.50;;
15240;SDS011;7723;52.170;9.978;2023-03-17T01:17:59;3.58;;;1.95;;
15240;SDS011;7723;52.170;9.978;2023-03-17T01:20:27;3.53;;;2.38;;
15240;SDS011;7723;52.170;9.978;2023-03-17T01:22:56;2.58;;;1.88;;
15240;SDS011;7723;52.170;9.978;2023-03-17T01:25:25;3.80;;;2.25;;
15240;SDS011;7723;52.170;9.978;2023-03-17T01:27:53;3.35;;;2.33;;
15240;SDS011;7723;52.170;9.978;2023-03-17T01:30:23;2.88;;;2.00;;
15240;SDS011;7723;52.170;9.978;2023-03-17T01:32:52;2.38;;;1.80;;
15240;SDS011;7723;52.170;9.978;2023-03-17T01:35:21;2.97;;;2.25;;
15240;SDS011;7723;52.170;9.978;2023-03-17T01:37:49;3.03;;;2.03;;
15240;SDS011;7723;52.170;9.978;2023-03-17T01:40:18;5.40;;;2.22;;
15240;SDS011;7723;52.170;9.978;2023-03-17T01:42:50;2.97;;;2.08;;
15240;SDS011;7723;52.170;9.978;2023-03-17T01:48:23;5.88;;;2.55;;
15240;SDS011;7723;52.170;9.978;2023-03-17T01:50:53;3.50;;;2.13;;
15240;SDS011;7723;52.170;9.978;2023-03-17T01:53:22;3.28;;;2.00;;
15240;SDS011;7723;52.170;9.978;2023-03-17T01:55:49;3.72;;;2.00;;
15240;SDS011;7723;52.170;9.978;2023-03-17T01:58:19;3.55;;;2.05;;
15240;SDS011;7723;52.170;9.978;2023-03-17T02:00:49;2.33;;;1.83;;
15240;SDS011;7723;52.170;9.978;2023-03-17T02:03:16;3.17;;;1.83;;
15240;SDS011;7723;52.170;9.978;2023-03-17T02:05:44;3.95;;;2.10;;
15240;SDS011;7723;52.170;9.978;2023-03-17T02:08:13;3.25;;;1.90;;
15240;SDS011;7723;52.170;9.978;2023-03-17T02:10:45;4.68;;;1.90;;
15240;SDS011;7723;52.170;9.978;2023-03-17T02:13:14;4.40;;;2.55;;
15240;SDS011;7723;52.170;9.978;2023-03-17T02:15:44;3.63;;;2.08;;
15240;SDS011;7723;52.170;9.978;2023-03-17T02:18:13;3.75;;;1.95;;
15240;SDS011;7723;52.170;9.978;2023-03-17T02:23:59;2.38;;;1.90;;
15240;SDS011;7723;52.170;9.978;2023-03-17T02:26:32;2.83;;;2.00;;
15240;SDS011;7723;52.170;9.978;2023-03-17T02:29:00;3.88;;;2.30;;
15240;SDS011;7723;52.170;9.978;2023-03-17T02:31:28;2.67;;;1.83;;
15240;SDS011;7723;52.170;9.978;2023-03-17T02:33:55;2.47;;;1.67;;
15240;SDS011;7723;52.170;9.978;2023-03-17T02:36:22;4.13;;;2.13;;
15240;SDS011;7723;52.170;9.978;2023-03-17T02:38:51;3.33;;;2.33;;
15240;SDS011;7723;52.170;9.978;2023-03-17T02:41:18;9.30;;;2.25;;
15240;SDS011;7723;52.170;9.978;2023-03-17T02:43:45;2.88;;;1.80;;
15240;SDS011;7723;52.170;9.978;2023-03-17T02:46:13;3.30;;;2.08;;
15240;SDS011;7723;52.170;9.978;2023-03-17T02:48:40;3.60;;;2.42;;
15240;SDS011;7723;52.170;9.978;2023-03-17T02:51:08;3.17;;;1.90;;
15240;SDS011;7723;52.170;9.978;2023-03-17T02:53:35;4.55;;;1.92;;
15240;SDS011;7723;52.170;9.978;2023-03-17T02:56:04;3.45;;;2.20;;
15240;SDS011;7723;52.170;9.978;2023-03-17T02:58:32;4.00;;;2.63;;
15240;SDS011;7723;52.170;9.978;2023-03-17T03:00:59;4.28;;;2.13;;
15240;SDS011;7723;52.170;9.978;2023-03-17T03:03:27;3.50;;;2.15;;
15240;SDS011;7723;52.170;9.978;2023-03-17T03:05:54;2.70;;;1.75;;
15240;SDS011;7723;52.170;9.978;2023-03-17T03:08:23;3.38;;;2.10;;
15240;SDS011;7723;52.170;9.978;2023-03-17T03:10:52;3.83;;;2.45;;
15240;SDS011;7723;52.170;9.978;2023-03-17T03:13:21;2.13;;;1.50;;
15240;SDS011;7723;52.170;9.978;2023-03-17T03:15:48;3.75;;;2.10;;
15240;SDS011;7723;52.170;9.978;2023-03-17T03:18:16;3.08;;;2.13;;
15240;SDS011;7723;52.170;9.978;2023-03-17T03:20:43;4.28;;;2.60;;
15240;SDS011;7723;52.170;9.978;2023-03-17T03:23:11;3.25;;;1.80;;
15240;SDS011;7723;52.170;9.978;2023-03-17T03:25:38;4.15;;;2.15;;
15240;SDS011;7723;52.170;9.978;2023-03-17T03:28:06;2.97;;;2.25;;
15240;SDS011;7723;52.170;9.978;2023-03-17T03:30:36;3.03;;;1.77;;
15240;SDS011;7723;52.170;9.978;2023-03-17T03:33:03;2.80;;;1.90;;
15240;SDS011;7723;52.170;9.978;2023-03-17T03:35:31;3.28;;;1.90;;
15240;SDS011;7723;52.170;9.978;2023-03-17T03:37:59;3.45;;;2.10;;
15240;SDS011;7723;52.170;9.978;2023-03-17T03:40:27;3.53;;;2.08;;
15240;SDS011;7723;52.170;9.978;2023-03-17T03:42:54;3.35;;;2.00;;
15240;SDS011;7723;52.170;9.978;2023-03-17T03:45:22;3.17;;;1.70;;
15240;SDS011;7723;52.170;9.978;2023-03-17T03:47:50;8.38;;;1.58;;
15240;SDS011;7723;52.170;9.978;2023-03-17T03:50:17;6.90;;;2.50;;
15240;SDS011;7723;52.170;9.978;2023-03-17T03:52:44;2.53;;;1.70;;
15240;SDS011;7723;52.170;9.978;2023-03-17T03:55:12;2.92;;;1.80;;
15240;SDS011;7723;52.170;9.978;2023-03-17T03:57:39;4.35;;;1.70;;
15240;SDS011;7723;52.170;9.978;2023-03-17T04:00:06;5.40;;;2.38;;
15240;SDS011;7723;52.170;9.978;2023-03-17T04:02:35;3.80;;;2.20;;
15240;SDS011;7723;52.170;9.978;2023-03-17T04:05:03;2.65;;;1.95;;
15240;SDS011;7723;52.170;9.978;2023-03-17T04:07:31;3.17;;;1.88;;
15240;SDS011;7723;52.170;9.978;2023-03-17T04:09:58;3.47;;;2.13;;
15240;SDS011;7723;52.170;9.978;2023-03-17T04:12:26;3.33;;;2.03;;
15240;SDS011;7723;52.170;9.978;2023-03-17T04:14:53;3.95;;;2.33;;
15240;SDS011;7723;52.170;9.978;2023-03-17T04:17:20;3.38;;;2.08;;
15240;SDS011;7723;52.170;9.978;2023-03-17T04:19:48;3.55;;;2.00;;
15240;SDS011;7723;52.170;9.978;2023-03-17T04:22:16;4.50;;;2.00;;
15240;SDS011;7723;52.170;9.978;2023-03-17T04:24:44;3.53;;;2.03;;
15240;SDS011;7723;52.170;9.978;2023-03-17T04:27:11;3.60;;;2.35;;
15240;SDS011;7723;52.170;9.978;2023-03-17T04:29:39;2.85;;;2.15;;
15240;SDS011;7723;52.170;9.978;2023-03-17T04:32:08;6.15;;;2.17;;
15240;SDS011;7723;52.170;9.978;2023-03-17T04:34:37;3.33;;;2.00;;
15240;SDS011;7723;52.170;9.978;2023-03-17T04:37:05;3.28;;;1.95;;
15240;SDS011;7723;52.170;9.978;2023-03-17T04:39:34;3.47;;;1.90;;
15240;SDS011;7723;52.170;9.978;2023-03-17T04:42:01;5.68;;;1.90;;
15240;SDS011;7723;52.170;9.978;2023-03-17T04:44:29;3.40;;;2.15;;
15240;SDS011;7723;52.170;9.978;2023-03-17T04:46:56;3.97;;;2.05;;
15240;SDS011;7723;52.170;9.978;2023-03-17T04:49:24;6.30;;;2.13;;
15240;SDS011;7723;52.170;9.978;2023-03-17T04:51:54;2.58;;;1.75;;
15240;SDS011;7723;52.170;9.978;2023-03-17T04:54:21;4.82;;;2.17;;
15240;SDS011;7723;52.170;9.978;2023-03-17T04:56:49;3.08;;;2.40;;
15240;SDS011;7723;52.170;9.978;2023-03-17T04:59:17;4.38;;;1.95;;
15240;SDS011;7723;52.170;9.978;2023-03-17T05:01:44;3.55;;;2.50;;
15240;SDS011;7723;52.170;9.978;2023-03-17T05:04:12;4.82;;;2.10;;
15240;SDS011;7723;52.170;9.978;2023-03-17T05:06:39;4.50;;;2.42;;
15240;SDS011;7723;52.170;9.978;2023-03-17T05:09:06;3.35;;;1.98;;
15240;SDS011;7723;52.170;9.978;2023-03-17T05:11:33;4.55;;;2.33;;
15240;SDS011;7723;52.170;9.978;2023-03-17T05:14:01;3.90;;;2.42;;
15240;SDS011;7723;52.170;9.978;2023-03-17T05:16:28;3.03;;;1.90;;
15240;SDS011;7723;52.170;9.978;2023-03-17T05:18:56;3.58;;;2.10;;
15240;SDS011;7723;52.170;9.978;2023-03-17T05:21:23;4.57;;;2.50;;
15240;SDS011;7723;52.170;9.978;2023-03-17T05:23:50;3.35;;;1.85;;
15240;SDS011;7723;52.170;9.978;2023-03-17T05:26:18;4.32;;;2.00;;
15240;SDS011;7723;52.170;9.978;2023-03-17T05:28:45;2.97;;;1.98;;
15240;SDS011;7723;52.170;9.978;2023-03-17T05:31:13;3.58;;;1.65;;
15240;SDS011;7723;52.170;9.978;2023-03-17T05:33:43;2.75;;;1.90;;
15240;SDS011;7723;52.170;9.978;2023-03-17T05:36:10;3.33;;;2.20;;
15240;SDS011;7723;52.170;9.978;2023-03-17T05:38:38;2.90;;;2.03;;
15240;SDS011;7723;52.170;9.978;2023-03-17T05:41:06;3.80;;;2.38;;
15240;SDS011;7723;52.170;9.978;2023-03-17T05:43:34;2.95;;;1.77;;
15240;SDS011;7723;52.170;9.978;2023-03-17T05:46:01;4.65;;;2.13;;
15240;SDS011;7723;52.170;9.978;2023-03-17T05:48:31;3.67;;;1.90;;
15240;SDS011;7723;52.170;9.978;2023-03-17T05:50:58;4.28;;;2.17;;
15240;SDS011;7723;52.170;9.978;2023-03-17T05:53:25;3.53;;;2.20;;
15240;SDS011;7723;52.170;9.978;2023-03-17T05:55:53;3.10;;;2.25;;
15240;SDS011;7723;52.170;9.978;2023-03-17T05:58:21;25.98;;;4.32;;
15240;SDS011;7723;52.170;9.978;2023-03-17T06:00:48;12.13;;;2.85;;
15240;SDS011;7723;52.170;9.978;2023-03-17T06:03:15;10.68;;;2.85;;
15240;SDS011;7723;52.170;9.978;2023-03-17T06:05:44;4.22;;;2.03;;
15240;SDS011;7723;52.170;9.978;2023-03-17T06:08:11;9.32;;;2.65;;
15240;SDS011;7723;52.170;9.978;2023-03-17T06:10:39;5.57;;;2.35;;
15240;SDS011;7723;52.170;9.978;2023-03-17T06:13:07;6.55;;;2.53;;
15240;SDS011;7723;52.170;9.978;2023-03-17T06:15:35;10.32;;;3.13;;
15240;SDS011;7723;52.170;9.978;2023-03-17T06:18:02;14.55;;;3.17;;
15240;SDS011;7723;52.170;9.978;2023-03-17T06:20:30;26.33;;;4.22;;
15240;SDS011;7723;52.170;9.978;2023-03-17T06:22:59;4.60;;;2.55;;
15240;SDS011;7723;52.170;9.978;2023-03-17T06:25:26;3.78;;;1.95;;
15240;SDS011;7723;52.170;9.978;2023-03-17T06:27:54;4.55;;;2.25;;
15240;SDS011;7723;52.170;9.978;2023-03-17T06:30:21;4.63;;;2.10;;
15240;SDS011;7723;52.170;9.978;2023-03-17T06:32:48;5.07;;;1.92;;
15240;SDS011;7723;52.170;9.978;2023-03-17T06:35:16;4.55;;;2.10;;
15240;SDS011;7723;52.170;9.978;2023-03-17T06:37:43;3.42;;;2.28;;
15240;SDS011;7723;52.170;9.978;2023-03-17T06:40:12;3.92;;;2.00;;
15240;SDS011;7723;52.170;9.978;2023-03-17T06:42:40;4.07;;;1.83;;
15240;SDS011;7723;52.170;9.978;2023-03-17T06:45:07;4.25;;;1.80;;
15240;SDS011;7723;52.170;9.978;2023-03-17T06:47:36;3.35;;;2.20;;
15240;SDS011;7723;52.170;9.978;2023-03-17T06:50:04;2.45;;;1.70;;
15240;SDS011;7723;52.170;9.978;2023-03-17T06:52:33;5.40;;;1.80;;
15240;SDS011;7723;52.170;9.978;2023-03-17T06:55:01;3.40;;;1.98;;
15240;SDS011;7723;52.170;9.978;2023-03-17T06:57:30;2.72;;;1.90;;
15240;SDS011;7723;52.170;9.978;2023-03-17T06:59:58;2.58;;;1.60;;
15240;SDS011;7723;52.170;9.978;2023-03-17T07:02:25;4.35;;;1.85;;
15240;SDS011;7723;52.170;9.978;2023-03-17T07:04:52;2.50;;;1.60;;
15240;SDS011;7723;52.170;9.978;2023-03-17T07:07:22;2.85;;;1.70;;
15240;SDS011;7723;52.170;9.978;2023-03-17T07:09:50;3.35;;;2.05;;
15240;SDS011;7723;52.170;9.978;2023-03-17T07:12:18;2.10;;;1.63;;
15240;SDS011;7723;52.170;9.978;2023-03-17T07:14:47;2.28;;;1.83;;
15240;SDS011;7723;52.170;9.978;2023-03-17T07:17:14;3.42;;;1.88;;
15240;SDS011;7723;52.170;9.978;2023-03-17T07:19:42;2.65;;;1.77;;
15240;SDS011;7723;52.170;9.978;2023-03-17T07:22:10;3.58;;;1.65;;
15240;SDS011;7723;52.170;9.978;2023-03-17T07:24:38;3.33;;;1.65;;
15240;SDS011;7723;52.170;9.978;2023-03-17T07:27:07;3.28;;;1.60;;
15240;SDS011;7723;52.170;9.978;2023-03-17T07:29:34;2.45;;;1.52;;
15240;SDS011;7723;52.170;9.978;2023-03-17T07:32:03;2.92;;;2.00;;
15240;SDS011;7723;52.170;9.978;2023-03-17T07:34:31;2.72;;;1.52;;
15240;SDS011;7723;52.170;9.978;2023-03-17T07:36:58;2.53;;;1.42;;
15240;SDS011;7723;52.170;9.978;2023-03-17T07:39:26;3.17;;;2.00;;
15240;SDS011;7723;52.170;9.978;2023-03-17T07:41:53;3.25;;;1.95;;
15240;SDS011;7723;52.170;9.978;2023-03-17T07:44:20;3.47;;;1.45;;
15240;SDS011;7723;52.170;9.978;2023-03-17T07:46:48;2.58;;;1.40;;
15240;SDS011;7723;52.170;9.978;2023-03-17T07:49:17;2.40;;;1.38;;
15240;SDS011;7723;52.170;9.978;2023-03-17T07:51:46;3.53;;;1.45;;
15240;SDS011;7723;52.170;9.978;2023-03-17T07:54:13;4.15;;;2.10;;
15240;SDS011;7723;52.170;9.978;2023-03-17T07:56:41;2.72;;;1.48;;
15240;SDS011;7723;52.170;9.978;2023-03-17T07:59:08;5.00;;;2.13;;
15240;SDS011;7723;52.170;9.978;2023-03-17T08:01:36;2.75;;;1.83;;
15240;SDS011;7723;52.170;9.978;2023-03-17T08:04:04;3.30;;;1.73;;
15240;SDS011;7723;52.170;9.978;2023-03-17T08:06:33;2.65;;;1.50;;
15240;SDS011;7723;52.170;9.978;2023-03-17T08:09:00;2.28;;;1.80;;
15240;SDS011;7723;52.170;9.978;2023-03-17T08:11:27;3.95;;;1.45;;
15240;SDS011;7723;52.170;9.978;2023-03-17T08:13:54;6.55;;;1.77;;
15240;SDS011;7723;52.170;9.978;2023-03-17T08:16:21;2.28;;;1.77;;
15240;SDS011;7723;52.170;9.978;2023-03-17T08:18:48;4.15;;;1.30;;
15240;SDS011;7723;52.170;9.978;2023-03-17T08:21:15;1.55;;;1.23;;
15240;SDS011;7723;52.170;9.978;2023-03-17T08:23:44;2.95;;;1.60;;
15240;SDS011;7723;52.170;9.978;2023-03-17T08:26:11;2.13;;;1.48;;
15240;SDS011;7723;52.170;9.978;2023-03-17T08:28:39;1.95;;;1.58;;
15240;SDS011;7723;52.170;9.978;2023-03-17T08:31:09;2.50;;;1.52;;
15240;SDS011;7723;52.170;9.978;2023-03-17T08:33:38;1.83;;;1.30;;
15240;SDS011;7723;52.170;9.978;2023-03-17T08:36:07;2.40;;;1.50;;
15240;SDS011;7723;52.170;9.978;2023-03-17T08:38:35;3.25;;;1.40;;
15240;SDS011;7723;52.170;9.978;2023-03-17T08:41:06;1.88;;;1.30;;
15240;SDS011;7723;52.170;9.978;2023-03-17T08:43:36;2.67;;;1.30;;
15240;SDS011;7723;52.170;9.978;2023-03-17T08:46:05;5.55;;;1.67;;
15240;SDS011;7723;52.170;9.978;2023-03-17T08:48:36;2.42;;;1.40;;
15240;SDS011;7723;52.170;9.978;2023-03-17T08:51:03;5.68;;;3.22;;
15240;SDS011;7723;52.170;9.978;2023-03-17T08:53:31;6.47;;;2.85;;
15240;SDS011;7723;52.170;9.978;2023-03-17T08:55:59;2.85;;;1.80;;
15240;SDS011;7723;52.170;9.978;2023-03-17T08:58:29;3.13;;;1.58;;
15240;SDS011;7723;52.170;9.978;2023-03-17T09:00:57;2.65;;;1.52;;
15240;SDS011;7723;52.170;9.978;2023-03-17T09:03:25;9.00;;;1.70;;
15240;SDS011;7723;52.170;9.978;2023-03-17T09:05:53;3.38;;;2.08;;
15240;SDS011;7723;52.170;9.978;2023-03-17T09:08:20;2.80;;;1.50;;
15240;SDS011;7723;52.170;9.978;2023-03-17T09:10:48;2.70;;;1.70;;
15240;SDS011;7723;52.170;9.978;2023-03-17T09:13:16;4.55;;;1.75;;
15240;SDS011;7723;52.170;9.978;2023-03-17T09:15:44;1.77;;;1.48;;
15240;SDS011;7723;52.170;9.978;2023-03-17T09:18:11;2.58;;;1.50;;
15240;SDS011;7723;52.170;9.978;2023-03-17T09:20:39;2.13;;;1.25;;
15240;SDS011;7723;52.170;9.978;2023-03-17T09:23:07;2.90;;;1.67;;
15240;SDS011;7723;52.170;9.978;2023-03-17T09:25:36;1.63;;;1.20;;
15240;SDS011;7723;52.170;9.978;2023-03-17T09:28:04;2.20;;;1.45;;
15240;SDS011;7723;52.170;9.978;2023-03-17T09:30:31;2.47;;;1.20;;
15240;SDS011;7723;52.170;9.978;2023-03-17T09:33:00;1.50;;;1.20;;
15240;SDS011;7723;52.170;9.978;2023-03-17T09:35:28;4.47;;;1.58;;
15240;SDS011;7723;52.170;9.978;2023-03-17T09:37:56;3.42;;;1.10;;
15240;SDS011;7723;52.170;9.978;2023-03-17T09:40:26;2.95;;;1.55;;
15240;SDS011;7723;52.170;9.978;2023-03-17T09:42:59;2.08;;;1.73;;
15240;SDS011;7723;52.170;9.978;2023-03-17T09:45:36;2.85;;;1.17;;
15240;SDS011;7723;52.170;9.978;2023-03-17T09:48:25;1.75;;;1.30;;
15240;SDS011;7723;52.170;9.978;2023-03-17T09:51:01;2.22;;;1.35;;
15240;SDS011;7723;52.170;9.978;2023-03-17T09:53:31;2.28;;;1.10;;
15240;SDS011;7723;52.170;9.978;2023-03-17T09:56:01;3.95;;;1.63;;
15240;SDS011;7723;52.170;9.978;2023-03-17T09:58:32;3.00;;;1.50;;
15240;SDS011;7723;52.170;9.978;2023-03-17T10:01:01;2.33;;;1.48;;
15240;SDS011;7723;52.170;9.978;2023-03-17T10:03:32;1.77;;;1.17;;
15240;SDS011;7723;52.170;9.978;2023-03-17T10:06:10;1.67;;;1.20;;
15240;SDS011;7723;52.170;9.978;2023-03-17T10:08:45;1.55;;;1.08;;
15240;SDS011;7723;52.170;9.978;2023-03-17T10:11:19;2.30;;;1.42;;
15240;SDS011;7723;52.170;9.978;2023-03-17T10:13:57;6.47;;;1.50;;
15240;SDS011;7723;52.170;9.978;2023-03-17T10:16:30;1.90;;;1.60;;
15240;SDS011;7723;52.170;9.978;2023-03-17T10:19:09;1.70;;;1.30;;
15240;SDS011;7723;52.170;9.978;2023-03-17T10:21:47;2.33;;;1.70;;
15240;SDS011;7723;52.170;9.978;2023-03-17T10:24:19;2.50;;;1.70;;
15240;SDS011;7723;52.170;9.978;2023-03-17T10:26:49;3.70;;;1.60;;
15240;SDS011;7723;52.170;9.978;2023-03-17T10:29:17;2.08;;;1.20;;
15240;SDS011;7723;52.170;9.978;2023-03-17T10:31:47;3.90;;;1.40;;
15240;SDS011;7723;52.170;9.978;2023-03-17T10:34:16;2.25;;;1.65;;
15240;SDS011;7723;52.170;9.978;2023-03-17T10:36:48;1.45;;;1.20;;
15240;SDS011;7723;52.170;9.978;2023-03-17T10:39:19;2.03;;;1.27;;
15240;SDS011;7723;52.170;9.978;2023-03-17T10:41:51;4.35;;;1.52;;
15240;SDS011;7723;52.170;9.978;2023-03-17T10:44:22;1.83;;;1.23;;
15240;SDS011;7723;52.170;9.978;2023-03-17T10:46:58;2.35;;;1.70;;
15240;SDS011;7723;52.170;9.978;2023-03-17T10:49:27;7.63;;;1.30;;
15240;SDS011;7723;52.170;9.978;2023-03-17T10:52:00;2.10;;;1.20;;
15240;SDS011;7723;52.170;9.978;2023-03-17T10:54:33;2.65;;;1.67;;
15240;SDS011;7723;52.170;9.978;2023-03-17T10:57:01;1.83;;;1.23;;
15240;SDS011;7723;52.170;9.978;2023-03-17T10:59:36;2.00;;;1.70;;
15240;SDS011;7723;52.170;9.978;2023-03-17T11:02:14;1.80;;;1.27;;
15240;SDS011;7723;52.170;9.978;2023-03-17T11:04:47;1.83;;;1.40;;
15240;SDS011;7723;52.170;9.978;2023-03-17T11:07:15;2.53;;;1.45;;
15240;SDS011;7723;52.170;9.978;2023-03-17T11:09:47;2.33;;;1.42;;
15240;SDS011;7723;52.170;9.978;2023-03-17T11:12:21;2.90;;;1.83;;
15240;SDS011;7723;52.170;9.978;2023-03-17T11:14:53;1.95;;;1.40;;
15240;SDS011;7723;52.170;9.978;2023-03-17T11:17:29;3.40;;;1.50;;
15240;SDS011;7723;52.170;9.978;2023-03-17T11:20:12;1.98;;;1.15;;
15240;SDS011;7723;52.170;9.978;2023-03-17T11:22:58;2.00;;;1.30;;
15240;SDS011;7723;52.170;9.978;2023-03-17T11:25:30;2.28;;;1.13;;
15240;SDS011;7723;52.170;9.978;2023-03-17T11:28:05;2.90;;;1.90;;
15240;SDS011;7723;52.170;9.978;2023-03-17T11:30:42;2.08;;;1.30;;
15240;SDS011;7723;52.170;9.978;2023-03-17T11:33:18;2.75;;;1.52;;
15240;SDS011;7723;52.170;9.978;2023-03-17T11:35:55;5.43;;;1.70;;
15240;SDS011;7723;52.170;9.978;2023-03-17T11:38:27;2.25;;;1.70;;
15240;SDS011;7723;52.170;9.978;2023-03-17T11:41:09;1.90;;;1.27;;
15240;SDS011;7723;52.170;9.978;2023-03-17T11:44:09;3.58;;;1.10;;
15240;SDS011;7723;52.170;9.978;2023-03-17T11:47:05;3.70;;;1.52;;
15240;SDS011;7723;52.170;9.978;2023-03-17T11:49:40;3.13;;;1.48;;
15240;SDS011;7723;52.170;9.978;2023-03-17T11:52:18;2.83;;;1.30;;
15240;SDS011;7723;52.170;9.978;2023-03-17T11:54:56;2.05;;;1.52;;
15240;SDS011;7723;52.170;9.978;2023-03-17T11:57:37;1.63;;;1.40;;
15240;SDS011;7723;52.170;9.978;2023-03-17T12:00:13;2.45;;;1.45;;
15240;SDS011;7723;52.170;9.978;2023-03-17T12:02:47;3.60;;;1.65;;
15240;SDS011;7723;52.170;9.978;2023-03-17T12:05:21;2.47;;;1.33;;
15240;SDS011;7723;52.170;9.978;2023-03-17T12:07:52;1.35;;;1.20;;
15240;SDS011;7723;52.170;9.978;2023-03-17T12:10:24;1.73;;;1.20;;
15240;SDS011;7723;52.170;9.978;2023-03-17T12:12:59;2.17;;;1.30;;
15240;SDS011;7723;52.170;9.978;2023-03-17T12:15:31;1.52;;;1.15;;
15240;SDS011;7723;52.170;9.978;2023-03-17T12:18:03;1.60;;;1.10;;
15240;SDS011;7723;52.170;9.978;2023-03-17T12:20:38;2.47;;;1.25;;
15240;SDS011;7723;52.170;9.978;2023-03-17T12:23:15;1.55;;;1.20;;
15240;SDS011;7723;52.170;9.978;2023-03-17T12:25:55;2.50;;;1.42;;
15240;SDS011;7723;52.170;9.978;2023-03-17T12:28:25;4.20;;;1.30;;
15240;SDS011;7723;52.170;9.978;2023-03-17T12:30:59;1.50;;;1.17;;
15240;SDS011;7723;52.170;9.978;2023-03-17T12:33:32;4.10;;;1.38;;
15240;SDS011;7723;52.170;9.978;2023-03-17T12:36:03;3.05;;;1.30;;
15240;SDS011;7723;52.170;9.978;2023-03-17T12:38:34;1.80;;;1.05;;
15240;SDS011;7723;52.170;9.978;2023-03-17T12:41:19;2.55;;;1.25;;
15240;SDS011;7723;52.170;9.978;2023-03-17T12:43:58;2.83;;;0.98;;
15240;SDS011;7723;52.170;9.978;2023-03-17T12:46:34;2.83;;;1.48;;
15240;SDS011;7723;52.170;9.978;2023-03-17T12:52:19;3.58;;;1.45;;
15240;SDS011;7723;52.170;9.978;2023-03-17T12:55:10;1.40;;;1.10;;
15240;SDS011;7723;52.170;9.978;2023-03-17T12:57:40;2.85;;;1.10;;
15240;SDS011;7723;52.170;9.978;2023-03-17T13:00:16;1.83;;;1.20;;
15240;SDS011;7723;52.170;9.978;2023-03-17T13:02:49;1.52;;;1.10;;
15240;SDS011;7723;52.170;9.978;2023-03-17T13:05:32;3.65;;;1.27;;
15240;SDS011;7723;52.170;9.978;2023-03-17T13:08:02;2.25;;;1.25;;
15240;SDS011;7723;52.170;9.978;2023-03-17T13:10:37;2.55;;;1.27;;
15240;SDS011;7723;52.170;9.978;2023-03-17T13:13:09;1.13;;;0.88;;
15240;SDS011;7723;52.170;9.978;2023-03-17T13:15:49;2.00;;;1.13;;
15240;SDS011;7723;52.170;9.978;2023-03-17T13:18:46;3.60;;;1.15;;
15240;SDS011;7723;52.170;9.978;2023-03-17T13:21:15;1.50;;;1.25;;
15240;SDS011;7723;52.170;9.978;2023-03-17T13:23:46;2.00;;;1.33;;
15240;SDS011;7723;52.170;9.978;2023-03-17T13:26:20;2.65;;;1.10;;
15240;SDS011;7723;52.170;9.978;2023-03-17T13:29:24;2.50;;;1.20;;
15240;SDS011;7723;52.170;9.978;2023-03-17T13:32:28;2.15;;;1.00;;
15240;SDS011;7723;52.170;9.978;2023-03-17T13:35:11;1.42;;;1.08;;
15240;SDS011;7723;52.170;9.978;2023-03-17T13:37:49;2.40;;;1.20;;
15240;SDS011;7723;52.170;9.978;2023-03-17T13:40:30;3.05;;;1.13;;
15240;SDS011;7723;52.170;9.978;2023-03-17T13:43:08;1.40;;;0.98;;
15240;SDS011;7723;52.170;9.978;2023-03-17T13:45:46;2.15;;;1.20;;
15240;SDS011;7723;52.170;9.978;2023-03-17T13:48:24;1.92;;;1.10;;
15240;SDS011;7723;52.170;9.978;2023-03-17T13:51:00;2.83;;;1.35;;
15240;SDS011;7723;52.170;9.978;2023-03-17T13:53:37;1.63;;;1.15;;
15240;SDS011;7723;52.170;9.978;2023-03-17T13:56:08;1.30;;;1.02;;
15240;SDS011;7723;52.170;9.978;2023-03-17T13:59:03;1.77;;;1.10;;
15240;SDS011;7723;52.170;9.978;2023-03-17T14:01:34;1.60;;;1.05;;
15240;SDS011;7723;52.170;9.978;2023-03-17T14:04:09;1.92;;;1.20;;
15240;SDS011;7723;52.170;9.978;2023-03-17T14:06:43;2.63;;;1.30;;
15240;SDS011;7723;52.170;9.978;2023-03-17T14:09:17;1.70;;;1.20;;
15240;SDS011;7723;52.170;9.978;2023-03-17T14:11:52;3.17;;;1.05;;
15240;SDS011;7723;52.170;9.978;2023-03-17T14:14:23;2.47;;;1.10;;
15240;SDS011;7723;52.170;9.978;2023-03-17T14:17:02;1.98;;;1.00;;
15240;SDS011;7723;52.170;9.978;2023-03-17T14:19:36;2.55;;;1.05;;
15240;SDS011;7723;52.170;9.978;2023-03-17T14:24:52;1.35;;;1.15;;
15240;SDS011;7723;52.170;9.978;2023-03-17T14:27:20;3.10;;;1.05;;
15240;SDS011;7723;52.170;9.978;2023-03-17T14:29:51;3.28;;;1.17;;
15240;SDS011;7723;52.170;9.978;2023-03-17T14:32:18;2.30;;;0.90;;
15240;SDS011;7723;52.170;9.978;2023-03-17T14:34:52;1.55;;;1.05;;
15240;SDS011;7723;52.170;9.978;2023-03-17T14:37:21;2.40;;;1.00;;
15240;SDS011;7723;52.170;9.978;2023-03-17T14:39:50;2.40;;;0.82;;
15240;SDS011;7723;52.170;9.978;2023-03-17T14:42:18;1.38;;;0.90;;
15240;SDS011;7723;52.170;9.978;2023-03-17T14:45:00;1.83;;;1.30;;
15240;SDS011;7723;52.170;9.978;2023-03-17T14:47:30;2.60;;;1.05;;
15240;SDS011;7723;52.170;9.978;2023-03-17T14:50:02;2.35;;;0.90;;
15240;SDS011;7723;52.170;9.978;2023-03-17T14:52:33;2.28;;;1.15;;
15240;SDS011;7723;52.170;9.978;2023-03-17T14:55:05;2.28;;;1.20;;
15240;SDS011;7723;52.170;9.978;2023-03-17T14:57:36;2.03;;;1.33;;
15240;SDS011;7723;52.170;9.978;2023-03-17T15:00:14;3.97;;;1.15;;
15240;SDS011;7723;52.170;9.978;2023-03-17T15:02:53;2.35;;;1.08;;
15240;SDS011;7723;52.170;9.978;2023-03-17T15:05:23;1.45;;;1.23;;
15240;SDS011;7723;52.170;9.978;2023-03-17T15:07:53;1.15;;;0.68;;
15240;SDS011;7723;52.170;9.978;2023-03-17T15:10:21;3.90;;;1.02;;
15240;SDS011;7723;52.170;9.978;2023-03-17T15:12:50;1.15;;;0.82;;
15240;SDS011;7723;52.170;9.978;2023-03-17T15:15:28;1.27;;;1.00;;
15240;SDS011;7723;52.170;9.978;2023-03-17T15:17:58;1.27;;;0.93;;
15240;SDS011;7723;52.170;9.978;2023-03-17T15:20:30;3.28;;;1.17;;
15240;SDS011;7723;52.170;9.978;2023-03-17T15:23:02;1.65;;;0.90;;
15240;SDS011;7723;52.170;9.978;2023-03-17T15:25:33;1.52;;;0.90;;
15240;SDS011;7723;52.170;9.978;2023-03-17T15:28:08;1.45;;;1.02;;
15240;SDS011;7723;52.170;9.978;2023-03-17T15:30:39;4.70;;;1.40;;
15240;SDS011;7723;52.170;9.978;2023-03-17T15:33:11;1.08;;;0.77;;